createdAt,value
2023-06-20T00:00:58.490Z,23.32
2023-06-20T00:03:25.451Z,23.31
2023-06-20T00:05:52.427Z,23.34
2023-06-20T00:08:19.352Z,23.23
2023-06-20T00:10:46.354Z,23.12
2023-06-20T00:13:13.278Z,23.11
2023-06-20T00:15:42.606Z,23.15
2023-06-20T00:18:09.738Z,23.17
2023-06-20T00:20:39.550Z,23.10
2023-06-20T00:23:07.819Z,23.03
2023-06-20T00:25:34.775Z,23.04
2023-06-20T00:28:03.450Z,23.01
2023-06-20T00:30:30.534Z,22.96
2023-06-20T00:32:59.999Z,22.96
2023-06-20T00:35:27.727Z,22.88
2023-06-20T00:37:55.719Z,22.79
2023-06-20T00:40:22.685Z,22.76
2023-06-20T00:42:49.550Z,22.70
2023-06-20T00:45:31.676Z,22.45
2023-06-20T00:48:04.804Z,22.48
2023-06-20T00:50:32.803Z,22.46
2023-06-20T00:53:05.234Z,22.32
2023-06-20T00:55:34.226Z,22.09
2023-06-20T00:58:03.957Z,22.07
2023-06-20T01:00:34.621Z,21.99
2023-06-20T01:03:13.152Z,21.91
2023-06-20T01:05:44.264Z,21.85
2023-06-20T01:08:23.176Z,21.85
2023-06-20T01:11:06.208Z,21.81
2023-06-20T01:14:23.293Z,21.78
2023-06-20T01:17:22.538Z,21.73
2023-06-20T01:20:14.254Z,21.62
2023-06-20T01:23:14.921Z,21.66
2023-06-20T01:26:33.203Z,21.60
2023-06-20T01:29:13.738Z,21.66
2023-06-20T01:31:45.649Z,21.66
2023-06-20T01:34:21.307Z,21.69
2023-06-20T01:37:00.916Z,21.71
2023-06-20T01:39:33.992Z,21.71
2023-06-20T01:42:04.648Z,21.63
2023-06-20T01:44:34.306Z,21.59
2023-06-20T01:47:04.110Z,21.66
2023-06-20T01:49:32.886Z,21.71
2023-06-20T01:52:01.386Z,21.79
2023-06-20T01:54:31.382Z,21.81
2023-06-20T01:56:59.290Z,21.84
2023-06-20T01:59:28.776Z,21.83
2023-06-20T02:01:58.081Z,21.85
2023-06-20T02:04:26.544Z,21.87
2023-06-20T02:06:54.052Z,21.71
2023-06-20T02:09:21.088Z,21.80
2023-06-20T02:11:48.933Z,21.82
2023-06-20T02:14:16.741Z,21.70
2023-06-20T02:16:44.833Z,21.10
2023-06-20T02:19:11.779Z,20.98
2023-06-20T02:21:39.427Z,21.16
2023-06-20T02:24:07.896Z,21.21
2023-06-20T02:26:40.896Z,21.21
2023-06-20T02:29:09.532Z,21.20
2023-06-20T02:31:48.476Z,21.12
2023-06-20T02:34:19.750Z,21.12
2023-06-20T02:36:48.083Z,21.12
2023-06-20T02:39:15.347Z,21.16
2023-06-20T02:41:43.637Z,21.14
2023-06-20T02:44:10.867Z,21.07
2023-06-20T02:47:04.220Z,21.09
2023-06-20T02:50:14.873Z,21.00
2023-06-20T02:52:49.731Z,21.02
2023-06-20T02:55:32.208Z,20.86
2023-06-20T02:58:02.264Z,21.12
2023-06-20T03:00:30.765Z,21.18
2023-06-20T03:03:07.660Z,21.07
2023-06-20T03:05:40.076Z,21.25
2023-06-20T03:08:08.893Z,21.30
2023-06-20T03:10:36.315Z,21.26
2023-06-20T03:13:05.832Z,21.29
2023-06-20T03:15:33.636Z,21.30
2023-06-20T03:18:01.446Z,21.38
2023-06-20T03:20:29.722Z,21.29
2023-06-20T03:22:56.818Z,21.40
2023-06-20T03:25:23.971Z,21.44
2023-06-20T03:27:51.151Z,21.48
2023-06-20T03:30:18.069Z,21.51
2023-06-20T03:32:45.054Z,21.64
2023-06-20T03:35:11.983Z,21.67
2023-06-20T03:37:39.078Z,21.68
2023-06-20T03:40:07.098Z,21.70
2023-06-20T03:42:34.061Z,21.73
2023-06-20T03:45:00.912Z,21.82
2023-06-20T03:47:27.805Z,21.90
2023-06-20T03:49:54.894Z,21.81
2023-06-20T03:52:21.832Z,21.79
2023-06-20T03:54:48.758Z,21.85
2023-06-20T03:57:15.690Z,21.88
2023-06-20T03:59:43.058Z,21.91
2023-06-20T04:02:09.916Z,21.93
2023-06-20T04:04:38.256Z,21.95
2023-06-20T04:07:05.247Z,21.94
2023-06-20T04:09:32.140Z,21.94
2023-06-20T04:11:59.075Z,21.84
2023-06-20T04:14:26.011Z,21.95
2023-06-20T04:16:53.000Z,22.02
2023-06-20T04:19:20.077Z,22.23
2023-06-20T04:21:46.973Z,22.01
2023-06-20T04:24:13.875Z,22.10
2023-06-20T04:26:40.734Z,22.02
2023-06-20T04:29:07.692Z,22.01
2023-06-20T04:31:34.606Z,21.90
2023-06-20T04:34:01.580Z,22.26
2023-06-20T04:36:31.156Z,22.36
2023-06-20T04:38:58.103Z,22.47
2023-06-20T04:41:25.010Z,22.61
2023-06-20T04:43:51.849Z,22.72
2023-06-20T04:46:18.726Z,22.88
2023-06-20T04:48:47.257Z,22.59
2023-06-20T04:51:15.084Z,22.71
2023-06-20T04:53:41.991Z,22.90
2023-06-20T04:56:08.862Z,23.07
2023-06-20T04:58:35.787Z,23.22
2023-06-20T05:01:02.680Z,23.29
2023-06-20T05:03:29.897Z,23.23
2023-06-20T05:05:56.894Z,23.39
2023-06-20T05:08:23.845Z,23.35
2023-06-20T05:10:50.832Z,23.16
2023-06-20T05:13:17.833Z,23.19
2023-06-20T05:15:44.782Z,23.42
2023-06-20T05:18:11.706Z,23.06
2023-06-20T05:20:38.560Z,23.02
2023-06-20T05:23:05.506Z,23.38
2023-06-20T05:25:32.626Z,23.62
2023-06-20T05:27:59.566Z,23.83
2023-06-20T05:30:26.645Z,23.80
2023-06-20T05:32:53.993Z,24.17
2023-06-20T05:35:20.961Z,24.20
2023-06-20T05:37:50.731Z,24.50
2023-06-20T05:40:18.001Z,24.52
2023-06-20T05:42:44.991Z,24.73
2023-06-20T05:45:12.214Z,24.92
2023-06-20T05:47:39.253Z,25.26
2023-06-20T05:50:07.591Z,25.52
2023-06-20T05:52:36.987Z,25.06
2023-06-20T05:55:05.265Z,25.63
2023-06-20T05:57:32.152Z,25.54
2023-06-20T05:59:59.126Z,25.97
2023-06-20T06:02:26.085Z,25.79
2023-06-20T06:04:53.170Z,25.53
2023-06-20T06:07:20.165Z,25.28
2023-06-20T06:09:48.457Z,25.59
2023-06-20T06:12:15.899Z,25.98
2023-06-20T06:14:43.139Z,25.73
2023-06-20T06:17:10.087Z,26.26
2023-06-20T06:19:37.181Z,26.62
2023-06-20T06:22:04.383Z,26.91
2023-06-20T06:24:31.420Z,26.78
2023-06-20T06:26:58.316Z,26.70
2023-06-20T06:29:26.845Z,26.76
2023-06-20T06:31:55.164Z,26.81
2023-06-20T06:34:22.279Z,26.93
2023-06-20T06:36:50.726Z,26.89
2023-06-20T06:39:19.450Z,26.81
2023-06-20T06:41:49.266Z,26.48
2023-06-20T06:44:16.802Z,26.42
2023-06-20T06:46:43.794Z,26.59
2023-06-20T06:49:10.861Z,26.62
2023-06-20T06:51:39.965Z,26.78
2023-06-20T06:54:07.305Z,27.19
2023-06-20T06:56:34.220Z,27.74
2023-06-20T06:59:02.312Z,27.29
2023-06-20T07:01:30.056Z,27.63
2023-06-20T07:03:57.996Z,27.85
2023-06-20T07:06:25.255Z,27.30
2023-06-20T07:08:53.787Z,27.24
2023-06-20T07:11:20.862Z,27.40
2023-06-20T07:13:47.876Z,27.21
2023-06-20T07:16:15.288Z,27.35
2023-06-20T07:18:42.289Z,27.00
2023-06-20T07:21:09.177Z,26.66
2023-06-20T07:23:36.063Z,27.03
2023-06-20T07:26:02.969Z,27.21
2023-06-20T07:28:30.242Z,27.10
2023-06-20T07:30:57.656Z,27.07
2023-06-20T07:33:24.671Z,27.10
2023-06-20T07:35:51.656Z,27.13
2023-06-20T07:38:19.941Z,27.23
2023-06-20T07:40:47.704Z,27.11
2023-06-20T07:43:14.637Z,27.13
2023-06-20T07:45:41.621Z,26.95
2023-06-20T07:48:08.599Z,26.92
2023-06-20T07:50:35.485Z,26.96
2023-06-20T07:53:04.047Z,26.98
2023-06-20T07:55:31.568Z,27.02
2023-06-20T07:57:59.587Z,26.92
2023-06-20T08:00:27.680Z,27.22
2023-06-20T08:02:54.812Z,27.34
2023-06-20T08:05:22.076Z,27.67
2023-06-20T08:07:50.633Z,27.74
2023-06-20T08:10:18.689Z,28.08
2023-06-20T08:12:45.807Z,28.09
2023-06-20T08:15:12.873Z,28.30
2023-06-20T08:17:39.901Z,28.49
2023-06-20T08:20:10.136Z,27.92
2023-06-20T08:22:37.618Z,28.27
2023-06-20T08:25:05.540Z,28.63
2023-06-20T08:27:33.419Z,28.62
2023-06-20T08:30:00.352Z,29.08
2023-06-20T08:32:27.324Z,29.10
2023-06-20T08:34:55.999Z,30.15
2023-06-20T08:37:24.434Z,30.58
2023-06-20T08:39:51.481Z,30.91
2023-06-20T08:42:18.371Z,31.16
2023-06-20T08:44:56.114Z,31.12
2023-06-20T08:47:24.188Z,30.44
2023-06-20T08:49:51.100Z,31.20
2023-06-20T08:52:29.722Z,31.58
2023-06-20T08:54:57.440Z,31.65
2023-06-20T08:57:24.953Z,31.71
2023-06-20T08:59:53.964Z,31.87
2023-06-20T09:02:22.955Z,31.75
2023-06-20T09:05:05.415Z,32.58
2023-06-20T09:07:40.387Z,32.53
2023-06-20T09:10:09.677Z,33.03
2023-06-20T09:12:54.302Z,31.63
2023-06-20T09:15:24.038Z,31.91
2023-06-20T09:17:52.957Z,32.42
2023-06-20T09:20:21.243Z,32.51
2023-06-20T09:22:48.250Z,32.31
2023-06-20T09:25:22.539Z,32.88
2023-06-20T09:27:49.937Z,33.48
2023-06-20T09:30:16.859Z,33.36
2023-06-20T09:32:44.796Z,33.58
2023-06-20T09:35:15.077Z,33.96
2023-06-20T09:37:43.410Z,34.28
2023-06-20T09:40:15.772Z,34.47
2023-06-20T09:42:45.606Z,33.87
2023-06-20T09:45:15.775Z,33.26
2023-06-20T09:47:44.916Z,33.25
2023-06-20T09:50:17.259Z,33.89
2023-06-20T09:52:55.027Z,33.65
2023-06-20T09:55:24.475Z,33.32
2023-06-20T09:57:54.843Z,33.90
2023-06-20T10:00:25.387Z,34.29
2023-06-20T10:02:54.654Z,33.88
2023-06-20T10:05:22.630Z,34.56
2023-06-20T10:07:50.614Z,33.74
2023-06-20T10:10:18.790Z,33.74
2023-06-20T10:12:47.876Z,33.91
2023-06-20T10:15:16.087Z,34.46
2023-06-20T10:17:47.618Z,34.84
2023-06-20T10:20:30.089Z,35.49
2023-06-20T10:23:01.871Z,34.81
2023-06-20T10:25:29.139Z,35.14
2023-06-20T10:28:03.568Z,35.52
2023-06-20T10:30:51.666Z,34.73
2023-06-20T10:33:32.381Z,35.18
2023-06-20T10:36:13.780Z,35.25
2023-06-20T10:39:00.826Z,35.59
2023-06-20T10:41:29.413Z,35.78
2023-06-20T10:44:01.238Z,35.55
2023-06-20T10:46:49.019Z,35.41
2023-06-20T10:49:16.054Z,35.69
2023-06-20T10:51:46.980Z,35.56
2023-06-20T10:54:15.203Z,35.50
2023-06-20T10:56:44.499Z,33.99
2023-06-20T10:59:16.298Z,35.06
2023-06-20T11:01:43.567Z,35.49
2023-06-20T11:04:12.676Z,35.94
2023-06-20T11:06:40.753Z,36.36
2023-06-20T11:09:20.971Z,35.91
2023-06-20T11:11:49.426Z,36.33
2023-06-20T11:14:20.640Z,36.85
2023-06-20T11:16:49.968Z,37.09
2023-06-20T11:21:55.339Z,37.39
2023-06-20T11:24:22.532Z,38.30
2023-06-20T11:26:49.597Z,37.55
2023-06-20T11:29:17.001Z,37.26
2023-06-20T11:31:44.825Z,36.95
2023-06-20T11:34:15.505Z,37.32
2023-06-20T11:36:42.495Z,37.50
2023-06-20T11:39:14.618Z,37.65
2023-06-20T11:41:41.860Z,37.69
2023-06-20T11:44:25.364Z,38.24
2023-06-20T11:46:52.505Z,38.09
2023-06-20T11:49:32.909Z,38.29
2023-06-20T11:52:00.579Z,38.56
2023-06-20T11:54:27.627Z,38.55
2023-06-20T11:56:55.531Z,38.17
2023-06-20T11:59:26.053Z,38.23
2023-06-20T12:01:53.948Z,38.36
2023-06-20T12:04:22.444Z,38.50
2023-06-20T12:06:54.348Z,38.08
2023-06-20T12:09:24.731Z,38.55
2023-06-20T12:11:57.242Z,38.86
2023-06-20T12:14:26.662Z,37.78
2023-06-20T12:16:53.922Z,37.85
2023-06-20T12:19:21.287Z,38.76
2023-06-20T12:21:48.933Z,37.93
2023-06-20T12:24:17.323Z,37.83
2023-06-20T12:26:47.923Z,38.81
2023-06-20T12:29:15.005Z,38.73
2023-06-20T12:31:41.890Z,37.79
2023-06-20T12:34:09.153Z,37.79
2023-06-20T12:36:36.223Z,38.36
2023-06-20T12:39:04.606Z,38.69
2023-06-20T12:41:36.259Z,39.16
2023-06-20T12:44:04.365Z,39.09
2023-06-20T12:46:31.602Z,39.08
2023-06-20T12:48:59.550Z,39.02
2023-06-20T12:51:26.619Z,38.97
2023-06-20T12:53:53.557Z,39.37
2023-06-20T12:56:21.105Z,39.29
2023-06-20T12:58:48.040Z,38.88
2023-06-20T13:01:14.936Z,38.92
2023-06-20T13:03:41.972Z,39.04
2023-06-20T13:06:11.375Z,38.97
2023-06-20T13:08:40.562Z,38.78
2023-06-20T13:11:07.625Z,39.23
2023-06-20T13:13:34.631Z,39.79
2023-06-20T13:16:01.743Z,39.89
2023-06-20T13:18:28.910Z,39.60
2023-06-20T13:20:55.883Z,39.53
2023-06-20T13:23:23.008Z,39.82
2023-06-20T13:25:49.922Z,38.96
2023-06-20T13:28:16.827Z,39.08
2023-06-20T13:30:44.653Z,39.45
2023-06-20T13:33:11.594Z,39.68
2023-06-20T13:35:39.162Z,39.42
2023-06-20T13:38:07.767Z,39.09
2023-06-20T13:40:35.017Z,39.62
2023-06-20T13:43:06.252Z,39.33
2023-06-20T13:45:34.476Z,39.25
2023-06-20T13:48:02.386Z,39.27
2023-06-20T13:50:29.580Z,38.98
2023-06-20T13:52:56.708Z,38.90
2023-06-20T13:55:23.667Z,38.59
2023-06-20T13:57:51.499Z,38.07
2023-06-20T14:00:18.489Z,38.63
2023-06-20T14:02:45.773Z,38.73
2023-06-20T14:05:15.891Z,38.73
2023-06-20T14:07:45.017Z,38.33
2023-06-20T14:10:12.141Z,38.77
2023-06-20T14:12:39.009Z,39.87
2023-06-20T14:15:07.050Z,40.81
2023-06-20T14:17:34.796Z,41.13
2023-06-20T14:20:01.771Z,40.98
2023-06-20T14:22:28.633Z,40.29
2023-06-20T14:24:55.522Z,39.88
2023-06-20T14:27:24.513Z,40.33
2023-06-20T14:29:51.704Z,40.45
2023-06-20T14:32:19.221Z,39.65
2023-06-20T14:34:46.271Z,40.31
2023-06-20T14:37:13.735Z,40.47
2023-06-20T14:39:41.981Z,39.57
2023-06-20T14:42:08.952Z,39.39
2023-06-20T14:44:35.888Z,39.30
2023-06-20T14:47:03.052Z,39.49
2023-06-20T14:49:31.172Z,39.33
2023-06-20T14:51:58.044Z,39.67
2023-06-20T14:54:25.292Z,39.96
2023-06-20T14:56:52.288Z,39.83
2023-06-20T14:59:19.240Z,40.22
2023-06-20T15:01:46.252Z,39.43
2023-06-20T15:04:15.157Z,39.17
2023-06-20T15:06:43.460Z,39.23
2023-06-20T15:09:10.602Z,39.63
2023-06-20T15:11:37.480Z,39.10
2023-06-20T15:14:04.424Z,40.06
2023-06-20T15:16:31.417Z,39.74
2023-06-20T15:18:58.609Z,39.41
2023-06-20T15:21:26.076Z,39.47
2023-06-20T15:23:53.358Z,38.29
2023-06-20T15:26:20.835Z,38.80
2023-06-20T15:28:48.076Z,38.45
2023-06-20T15:31:18.417Z,38.20
2023-06-20T15:33:45.346Z,38.90
2023-06-20T15:36:12.287Z,39.23
2023-06-20T15:38:39.229Z,39.41
2023-06-20T15:41:06.260Z,38.75
2023-06-20T15:43:36.738Z,38.33
2023-06-20T15:46:04.850Z,39.20
2023-06-20T15:48:31.900Z,38.90
2023-06-20T15:50:58.961Z,39.24
2023-06-20T15:53:26.205Z,39.23
2023-06-20T15:55:53.166Z,38.92
2023-06-20T15:58:20.067Z,38.65
2023-06-20T16:00:46.951Z,39.07
2023-06-20T16:03:13.989Z,38.94
2023-06-20T16:05:40.971Z,38.07
2023-06-20T16:08:07.817Z,38.26
2023-06-20T16:10:34.769Z,37.67
2023-06-20T16:13:02.241Z,37.62
2023-06-20T16:15:29.180Z,37.99
2023-06-20T16:17:56.103Z,37.67
2023-06-20T16:20:23.011Z,37.89
2023-06-20T16:22:50.441Z,38.32
2023-06-20T16:25:17.489Z,37.57
2023-06-20T16:27:45.026Z,36.75
2023-06-20T16:30:13.053Z,36.99
2023-06-20T16:32:40.146Z,36.77
2023-06-20T16:35:07.466Z,36.34
2023-06-20T16:37:34.331Z,36.18
2023-06-20T16:40:08.236Z,36.16
2023-06-20T16:42:35.400Z,35.90
2023-06-20T16:45:10.720Z,36.12
2023-06-20T16:47:39.944Z,36.12
2023-06-20T16:50:07.961Z,36.07
2023-06-20T16:52:34.941Z,36.06
2023-06-20T16:55:01.864Z,36.36
2023-06-20T16:57:28.719Z,36.33
2023-06-20T16:59:55.684Z,36.33
2023-06-20T17:02:25.584Z,36.49
2023-06-20T17:04:53.117Z,36.62
2023-06-20T17:07:24.535Z,36.67
2023-06-20T17:09:53.649Z,36.49
2023-06-20T17:12:20.571Z,36.41
2023-06-20T17:14:47.485Z,36.31
2023-06-20T17:17:14.489Z,36.17
2023-06-20T17:19:41.446Z,36.12
2023-06-20T17:22:11.511Z,36.20
2023-06-20T17:24:43.651Z,36.04
2023-06-20T17:27:13.739Z,35.69
2023-06-20T17:29:42.023Z,35.62
2023-06-20T17:32:09.594Z,35.27
2023-06-20T17:34:36.626Z,35.32
2023-06-20T17:37:04.176Z,35.20
2023-06-20T17:39:31.063Z,35.34
2023-06-20T17:41:58.137Z,35.38
2023-06-20T17:44:25.048Z,35.26
2023-06-20T17:46:56.492Z,35.23
2023-06-20T17:49:26.693Z,35.14
2023-06-20T17:51:53.560Z,34.96
2023-06-20T17:54:21.522Z,34.91
2023-06-20T17:56:49.744Z,34.79
2023-06-20T17:59:17.036Z,34.59
2023-06-20T18:01:44.014Z,34.55
2023-06-20T18:04:12.783Z,34.34
2023-06-20T18:06:40.844Z,34.16
2023-06-20T18:09:08.220Z,33.91
2023-06-20T18:11:35.189Z,33.83
2023-06-20T18:14:02.096Z,33.61
2023-06-20T18:16:29.152Z,33.60
2023-06-20T18:18:56.098Z,33.46
2023-06-20T18:21:23.024Z,33.36
2023-06-20T18:23:50.064Z,33.25
2023-06-20T18:26:17.091Z,33.02
2023-06-20T18:28:43.958Z,33.06
2023-06-20T18:31:11.002Z,32.93
2023-06-20T18:33:39.728Z,32.81
2023-06-20T18:36:08.075Z,32.73
2023-06-20T18:38:35.134Z,32.38
2023-06-20T18:41:02.054Z,32.38
2023-06-20T18:43:29.055Z,32.32
2023-06-20T18:45:56.733Z,32.29
2023-06-20T18:48:23.641Z,32.24
2023-06-20T18:50:53.127Z,32.13
2023-06-20T18:53:20.740Z,31.87
2023-06-20T18:55:47.769Z,31.73
2023-06-20T18:58:15.747Z,31.66
2023-06-20T19:00:42.694Z,31.55
2023-06-20T19:03:13.359Z,31.48
2023-06-20T19:05:40.885Z,31.42
2023-06-20T19:08:08.180Z,31.35
2023-06-20T19:10:35.232Z,31.26
2023-06-20T19:13:03.247Z,31.23
2023-06-20T19:15:30.788Z,31.15
2023-06-20T19:17:58.157Z,31.12
2023-06-20T19:20:26.640Z,31.09
2023-06-20T19:22:56.094Z,30.94
2023-06-20T19:25:23.227Z,30.81
2023-06-20T19:27:50.302Z,30.67
2023-06-20T19:30:20.749Z,30.68
2023-06-20T19:32:48.689Z,30.65
2023-06-20T19:35:16.655Z,30.63
2023-06-20T19:37:44.229Z,30.59
2023-06-20T19:40:11.576Z,30.58
2023-06-20T19:42:38.622Z,30.58
2023-06-20T19:45:06.591Z,30.55
2023-06-20T19:47:33.508Z,30.50
2023-06-20T19:50:00.403Z,30.40
2023-06-20T19:52:27.440Z,30.29
2023-06-20T19:54:54.376Z,30.31
2023-06-20T19:57:21.267Z,30.15
2023-06-20T19:59:48.660Z,30.08
2023-06-20T20:02:24.239Z,29.96
2023-06-20T20:04:51.311Z,30.11
2023-06-20T20:07:18.470Z,30.09
2023-06-20T20:09:45.687Z,29.89
2023-06-20T20:12:13.525Z,29.33
2023-06-20T20:14:40.746Z,29.10
2023-06-20T20:17:08.313Z,28.73
2023-06-20T20:19:35.241Z,28.42
2023-06-20T20:22:02.145Z,28.15
2023-06-20T20:24:29.052Z,28.03
2023-06-20T20:26:55.989Z,27.55
2023-06-20T20:29:23.658Z,27.48
2023-06-20T20:31:51.074Z,27.32
2023-06-20T20:34:18.641Z,27.21
2023-06-20T20:36:45.607Z,27.28
2023-06-20T20:39:15.396Z,27.27
2023-06-20T20:41:43.073Z,27.22
2023-06-20T20:44:10.609Z,27.22
2023-06-20T20:46:37.533Z,27.08
2023-06-20T20:49:04.789Z,27.02
2023-06-20T20:51:33.599Z,26.92
2023-06-20T20:54:00.940Z,26.91
2023-06-20T20:56:27.855Z,26.84
2023-06-20T20:58:55.277Z,26.76
2023-06-20T21:01:22.371Z,26.73
2023-06-20T21:03:50.112Z,26.32
2023-06-20T21:06:17.377Z,26.33
2023-06-20T21:08:44.342Z,26.38
2023-06-20T21:11:11.643Z,26.31
2023-06-20T21:13:38.574Z,26.22
2023-06-20T21:16:05.464Z,26.02
2023-06-20T21:18:32.389Z,26.06
2023-06-20T21:20:59.393Z,25.99
2023-06-20T21:23:26.490Z,26.01
2023-06-20T21:25:53.480Z,25.95
2023-06-20T21:28:20.409Z,26.02
2023-06-20T21:30:47.355Z,26.09
2023-06-20T21:33:14.303Z,26.07
2023-06-20T21:35:42.840Z,25.35
2023-06-20T21:38:11.161Z,25.56
2023-06-20T21:40:38.087Z,25.67
2023-06-20T21:43:05.326Z,25.74
2023-06-20T21:45:32.215Z,25.80
2023-06-20T21:47:59.145Z,25.80
2023-06-20T21:50:26.496Z,25.76
2023-06-20T21:52:53.758Z,25.70
2023-06-20T21:55:20.729Z,25.78
2023-06-20T21:57:47.904Z,25.79
2023-06-20T22:00:16.010Z,25.81
2023-06-20T22:02:43.321Z,25.83
2023-06-20T22:05:10.759Z,25.80
2023-06-20T22:07:37.873Z,25.80
2023-06-20T22:10:06.528Z,25.83
2023-06-20T22:12:33.986Z,25.72
2023-06-20T22:15:02.337Z,25.78
2023-06-20T22:17:30.889Z,25.82
2023-06-20T22:19:57.917Z,25.76
2023-06-20T22:22:24.868Z,25.63
2023-06-20T22:24:51.736Z,25.68
2023-06-20T22:27:18.766Z,25.71
2023-06-20T22:29:45.663Z,25.76
2023-06-20T22:32:12.630Z,25.73
2023-06-20T22:34:39.515Z,25.75
2023-06-20T22:37:06.592Z,25.72
2023-06-20T22:39:33.452Z,25.51
2023-06-20T22:42:00.482Z,24.71
2023-06-20T22:44:28.354Z,24.84
2023-06-20T22:46:58.425Z,24.94
2023-06-20T22:49:26.104Z,24.96
2023-06-20T22:51:53.622Z,25.02
2023-06-20T22:54:25.119Z,24.97
2023-06-20T22:56:53.075Z,24.99
2023-06-20T22:59:21.021Z,25.02
2023-06-20T23:01:48.616Z,24.99
2023-06-20T23:04:15.611Z,24.97
2023-06-20T23:06:42.515Z,24.96
2023-06-20T23:09:09.382Z,24.90
2023-06-20T23:11:36.978Z,24.94
2023-06-20T23:14:04.729Z,24.98
2023-06-20T23:16:32.497Z,25.04
2023-06-20T23:18:59.603Z,25.00
2023-06-20T23:21:26.921Z,24.90
2023-06-20T23:23:54.061Z,24.77
2023-06-20T23:26:22.227Z,24.72
2023-06-20T23:28:51.072Z,24.75
2023-06-20T23:31:19.262Z,24.80
2023-06-20T23:33:46.363Z,24.81
2023-06-20T23:36:16.940Z,24.71
2023-06-20T23:38:44.891Z,24.72
2023-06-20T23:41:11.825Z,24.56
2023-06-20T23:43:38.680Z,24.58
2023-06-20T23:46:43.035Z,24.56
2023-06-20T23:50:06.355Z,24.58
2023-06-20T23:52:33.717Z,24.66
2023-06-20T23:55:01.371Z,24.77
2023-06-20T23:57:32.563Z,24.81
